sensor_id;sensor_type;location;lat;lon;timestamp;temperature;humidity
12264;DHT22;6194;49.010;8.414;2023-08-12T00:00:20;20.60;99.90
12264;DHT22;6194;49.010;8.414;2023-08-12T00:02:46;20.70;99.90
12264;DHT22;6194;49.010;8.414;2023-08-12T00:05:12;20.80;99.90
12264;DHT22;6194;49.010;8.414;2023-08-12T00:07:39;20.80;99.90
12264;DHT22;6194;49.010;8.414;2023-08-12T00:10:09;20.80;99.90
12264;DHT22;6194;49.010;8.414;2023-08-12T00:12:36;20.90;99.90
12264;DHT22;6194;49.010;8.414;2023-08-12T00:15:02;21.00;99.90
12264;DHT22;6194;49.010;8.414;2023-08-12T00:17:28;21.10;99.90
12264;DHT22;6194;49.010;8.414;2023-08-12T00:19:54;20.90;99.90
12264;DHT22;6194;49.010;8.414;2023-08-12T00:22:19;20.90;99.90
12264;DHT22;6194;49.010;8.414;2023-08-12T00:24:45;20.80;99.90
12264;DHT22;6194;49.010;8.414;2023-08-12T00:27:11;20.80;99.90
12264;DHT22;6194;49.010;8.414;2023-08-12T00:29:36;20.80;99.90
12264;DHT22;6194;49.010;8.414;2023-08-12T00:32:02;20.70;99.90
12264;DHT22;6194;49.010;8.414;2023-08-12T00:34:28;20.60;99.90
12264;DHT22;6194;49.010;8.414;2023-08-12T00:36:54;20.60;99.90
12264;DHT22;6194;49.010;8.414;2023-08-12T00:39:19;20.60;99.90
12264;DHT22;6194;49.010;8.414;2023-08-12T00:41:45;20.50;99.90
12264;DHT22;6194;49.010;8.414;2023-08-12T00:44:10;20.50;99.90
12264;DHT22;6194;49.010;8.414;2023-08-12T00:46:38;20.50;99.90
12264;DHT22;6194;49.010;8.414;2023-08-12T00:49:04;20.50;99.90
12264;DHT22;6194;49.010;8.414;2023-08-12T00:51:30;20.40;99.90
12264;DHT22;6194;49.010;8.414;2023-08-12T00:53:58;20.40;99.90
12264;DHT22;6194;49.010;8.414;2023-08-12T00:56:24;20.40;99.90
12264;DHT22;6194;49.010;8.414;2023-08-12T00:58:50;20.40;99.90
12264;DHT22;6194;49.010;8.414;2023-08-12T01:01:15;20.40;99.90
12264;DHT22;6194;49.010;8.414;2023-08-12T01:03:43;20.40;99.90
12264;DHT22;6194;49.010;8.414;2023-08-12T01:06:08;20.40;99.90
12264;DHT22;6194;49.010;8.414;2023-08-12T01:08:35;20.40;99.90
12264;DHT22;6194;49.010;8.414;2023-08-12T01:11:30;20.30;99.90
12264;DHT22;6194;49.010;8.414;2023-08-12T01:16:42;20.40;99.90
12264;DHT22;6194;49.010;8.414;2023-08-12T01:19:11;20.40;99.90
12264;DHT22;6194;49.010;8.414;2023-08-12T01:21:41;20.50;99.90
12264;DHT22;6194;49.010;8.414;2023-08-12T01:24:08;20.40;99.90
12264;DHT22;6194;49.010;8.414;2023-08-12T01:26:34;20.40;99.90
12264;DHT22;6194;49.010;8.414;2023-08-12T01:29:00;20.40;99.90
12264;DHT22;6194;49.010;8.414;2023-08-12T01:31:34;20.40;99.90
12264;DHT22;6194;49.010;8.414;2023-08-12T01:34:20;20.50;99.90
12264;DHT22;6194;49.010;8.414;2023-08-12T01:36:55;20.60;99.90
12264;DHT22;6194;49.010;8.414;2023-08-12T01:39:23;20.60;99.90
12264;DHT22;6194;49.010;8.414;2023-08-12T01:41:50;20.70;99.90
12264;DHT22;6194;49.010;8.414;2023-08-12T01:44:17;20.70;99.90
12264;DHT22;6194;49.010;8.414;2023-08-12T01:46:44;20.70;99.90
12264;DHT22;6194;49.010;8.414;2023-08-12T01:49:09;20.80;99.90
12264;DHT22;6194;49.010;8.414;2023-08-12T01:51:35;20.80;99.90
12264;DHT22;6194;49.010;8.414;2023-08-12T01:54:01;20.80;99.90
12264;DHT22;6194;49.010;8.414;2023-08-12T01:56:26;20.80;99.90
12264;DHT22;6194;49.010;8.414;2023-08-12T01:58:52;20.80;99.90
12264;DHT22;6194;49.010;8.414;2023-08-12T02:01:17;20.90;99.90
12264;DHT22;6194;49.010;8.414;2023-08-12T02:03:43;21.00;99.90
12264;DHT22;6194;49.010;8.414;2023-08-12T02:06:08;21.00;99.90
12264;DHT22;6194;49.010;8.414;2023-08-12T02:08:34;21.10;99.90
12264;DHT22;6194;49.010;8.414;2023-08-12T02:11:00;21.10;99.90
12264;DHT22;6194;49.010;8.414;2023-08-12T02:13:26;21.10;99.90
12264;DHT22;6194;49.010;8.414;2023-08-12T02:15:51;21.10;99.90
12264;DHT22;6194;49.010;8.414;2023-08-12T02:18:17;21.20;99.90
12264;DHT22;6194;49.010;8.414;2023-08-12T02:20:42;21.00;99.90
12264;DHT22;6194;49.010;8.414;2023-08-12T02:23:08;21.00;99.90
12264;DHT22;6194;49.010;8.414;2023-08-12T02:25:34;21.10;99.90
12264;DHT22;6194;49.010;8.414;2023-08-12T02:27:59;21.10;99.90
12264;DHT22;6194;49.010;8.414;2023-08-12T02:30:25;21.10;99.90
12264;DHT22;6194;49.010;8.414;2023-08-12T02:32:50;21.00;99.90
12264;DHT22;6194;49.010;8.414;2023-08-12T02:35:18;21.10;99.90
12264;DHT22;6194;49.010;8.414;2023-08-12T02:37:43;21.10;99.90
12264;DHT22;6194;49.010;8.414;2023-08-12T02:40:09;21.10;99.90
12264;DHT22;6194;49.010;8.414;2023-08-12T02:42:36;21.20;99.90
12264;DHT22;6194;49.010;8.414;2023-08-12T02:45:01;21.30;99.90
12264;DHT22;6194;49.010;8.414;2023-08-12T02:47:27;21.20;99.90
12264;DHT22;6194;49.010;8.414;2023-08-12T02:49:53;21.30;99.90
12264;DHT22;6194;49.010;8.414;2023-08-12T02:52:18;21.30;99.90
12264;DHT22;6194;49.010;8.414;2023-08-12T02:54:44;21.30;99.90
12264;DHT22;6194;49.010;8.414;2023-08-12T02:57:10;21.30;99.90
12264;DHT22;6194;49.010;8.414;2023-08-12T02:59:35;21.20;99.90
12264;DHT22;6194;49.010;8.414;2023-08-12T03:02:01;21.30;99.90
12264;DHT22;6194;49.010;8.414;2023-08-12T03:04:26;21.30;99.90
12264;DHT22;6194;49.010;8.414;2023-08-12T03:06:52;21.40;99.90
12264;DHT22;6194;49.010;8.414;2023-08-12T03:09:18;21.40;99.90
12264;DHT22;6194;49.010;8.414;2023-08-12T03:11:44;21.40;99.90
12264;DHT22;6194;49.010;8.414;2023-08-12T03:14:09;21.50;99.90
12264;DHT22;6194;49.010;8.414;2023-08-12T03:16:35;21.50;99.90
12264;DHT22;6194;49.010;8.414;2023-08-12T03:19:00;21.60;99.90
12264;DHT22;6194;49.010;8.414;2023-08-12T03:21:26;21.60;99.90
12264;DHT22;6194;49.010;8.414;2023-08-12T03:23:51;21.50;99.90
12264;DHT22;6194;49.010;8.414;2023-08-12T03:26:17;21.60;99.90
12264;DHT22;6194;49.010;8.414;2023-08-12T03:28:43;21.70;99.90
12264;DHT22;6194;49.010;8.414;2023-08-12T03:31:08;21.60;99.90
12264;DHT22;6194;49.010;8.414;2023-08-12T03:33:34;21.60;99.90
12264;DHT22;6194;49.010;8.414;2023-08-12T03:36:00;21.60;99.90
12264;DHT22;6194;49.010;8.414;2023-08-12T03:38:25;21.60;99.90
12264;DHT22;6194;49.010;8.414;2023-08-12T03:40:51;21.60;99.90
12264;DHT22;6194;49.010;8.414;2023-08-12T03:43:17;21.70;99.90
12264;DHT22;6194;49.010;8.414;2023-08-12T03:45:43;21.70;99.90
12264;DHT22;6194;49.010;8.414;2023-08-12T03:48:09;21.70;99.90
12264;DHT22;6194;49.010;8.414;2023-08-12T03:50:38;21.80;99.90
12264;DHT22;6194;49.010;8.414;2023-08-12T03:53:05;21.80;99.90
12264;DHT22;6194;49.010;8.414;2023-08-12T03:55:31;21.70;99.90
12264;DHT22;6194;49.010;8.414;2023-08-12T03:57:58;21.70;99.90
12264;DHT22;6194;49.010;8.414;2023-08-12T04:00:24;21.70;99.90
12264;DHT22;6194;49.010;8.414;2023-08-12T04:02:49;21.80;99.90
12264;DHT22;6194;49.010;8.414;2023-08-12T04:05:15;21.80;99.90
12264;DHT22;6194;49.010;8.414;2023-08-12T04:07:40;21.80;99.90
12264;DHT22;6194;49.010;8.414;2023-08-12T04:10:07;21.80;99.90
12264;DHT22;6194;49.010;8.414;2023-08-12T04:12:32;21.80;99.90
12264;DHT22;6194;49.010;8.414;2023-08-12T04:14:58;21.80;99.90
12264;DHT22;6194;49.010;8.414;2023-08-12T04:17:25;21.80;99.90
12264;DHT22;6194;49.010;8.414;2023-08-12T04:19:50;21.80;99.90
12264;DHT22;6194;49.010;8.414;2023-08-12T04:22:16;21.80;99.90
12264;DHT22;6194;49.010;8.414;2023-08-12T04:24:42;21.80;99.90
12264;DHT22;6194;49.010;8.414;2023-08-12T04:27:07;21.80;99.90
12264;DHT22;6194;49.010;8.414;2023-08-12T04:29:34;21.70;99.90
12264;DHT22;6194;49.010;8.414;2023-08-12T04:32:00;21.80;99.90
12264;DHT22;6194;49.010;8.414;2023-08-12T04:34:25;21.80;99.90
12264;DHT22;6194;49.010;8.414;2023-08-12T04:36:51;21.90;99.90
12264;DHT22;6194;49.010;8.414;2023-08-12T04:39:16;21.90;99.90
12264;DHT22;6194;49.010;8.414;2023-08-12T04:41:42;21.90;99.90
12264;DHT22;6194;49.010;8.414;2023-08-12T04:44:08;21.90;99.90
12264;DHT22;6194;49.010;8.414;2023-08-12T04:46:33;22.00;99.90
12264;DHT22;6194;49.010;8.414;2023-08-12T04:48:59;21.90;99.90
12264;DHT22;6194;49.010;8.414;2023-08-12T04:51:25;22.00;99.90
12264;DHT22;6194;49.010;8.414;2023-08-12T04:53:50;22.00;99.90
12264;DHT22;6194;49.010;8.414;2023-08-12T04:56:16;22.00;99.90
12264;DHT22;6194;49.010;8.414;2023-08-12T04:58:41;22.10;99.90
12264;DHT22;6194;49.010;8.414;2023-08-12T05:01:07;22.20;99.90
12264;DHT22;6194;49.010;8.414;2023-08-12T05:03:33;22.30;99.90
12264;DHT22;6194;49.010;8.414;2023-08-12T05:05:58;22.30;99.90
12264;DHT22;6194;49.010;8.414;2023-08-12T05:08:24;22.40;99.90
12264;DHT22;6194;49.010;8.414;2023-08-12T05:10:50;22.40;99.90
12264;DHT22;6194;49.010;8.414;2023-08-12T05:13:16;22.30;99.90
12264;DHT22;6194;49.010;8.414;2023-08-12T05:15:45;22.20;99.90
12264;DHT22;6194;49.010;8.414;2023-08-12T05:18:11;22.10;99.90
12264;DHT22;6194;49.010;8.414;2023-08-12T05:20:36;22.10;99.90
12264;DHT22;6194;49.010;8.414;2023-08-12T05:23:02;22.10;99.90
12264;DHT22;6194;49.010;8.414;2023-08-12T05:25:28;22.10;99.90
12264;DHT22;6194;49.010;8.414;2023-08-12T05:27:53;22.20;99.90
12264;DHT22;6194;49.010;8.414;2023-08-12T05:30:19;22.30;99.90
12264;DHT22;6194;49.010;8.414;2023-08-12T05:32:44;22.40;99.90
12264;DHT22;6194;49.010;8.414;2023-08-12T05:35:10;22.60;99.90
12264;DHT22;6194;49.010;8.414;2023-08-12T05:37:36;22.90;99.90
12264;DHT22;6194;49.010;8.414;2023-08-12T05:40:01;23.00;99.90
12264;DHT22;6194;49.010;8.414;2023-08-12T05:42:28;23.10;99.90
12264;DHT22;6194;49.010;8.414;2023-08-12T05:44:54;23.20;99.90
12264;DHT22;6194;49.010;8.414;2023-08-12T05:47:19;23.30;99.90
12264;DHT22;6194;49.010;8.414;2023-08-12T05:49:45;23.30;99.90
12264;DHT22;6194;49.010;8.414;2023-08-12T05:52:10;23.20;99.90
12264;DHT22;6194;49.010;8.414;2023-08-12T05:54:36;23.10;99.90
12264;DHT22;6194;49.010;8.414;2023-08-12T05:57:01;23.10;99.90
12264;DHT22;6194;49.010;8.414;2023-08-12T05:59:28;23.10;99.90
12264;DHT22;6194;49.010;8.414;2023-08-12T06:01:54;23.20;99.90
12264;DHT22;6194;49.010;8.414;2023-08-12T06:04:19;24.00;99.90
12264;DHT22;6194;49.010;8.414;2023-08-12T06:06:45;25.30;99.90
12264;DHT22;6194;49.010;8.414;2023-08-12T06:09:10;25.70;99.90
12264;DHT22;6194;49.010;8.414;2023-08-12T06:11:36;25.80;99.90
12264;DHT22;6194;49.010;8.414;2023-08-12T06:14:02;26.00;99.90
12264;DHT22;6194;49.010;8.414;2023-08-12T06:16:27;26.00;99.90
12264;DHT22;6194;49.010;8.414;2023-08-12T06:18:53;25.50;99.90
12264;DHT22;6194;49.010;8.414;2023-08-12T06:21:18;25.30;99.90
12264;DHT22;6194;49.010;8.414;2023-08-12T06:23:44;25.30;99.90
12264;DHT22;6194;49.010;8.414;2023-08-12T06:26:09;26.30;99.90
12264;DHT22;6194;49.010;8.414;2023-08-12T06:28:35;28.00;99.90
12264;DHT22;6194;49.010;8.414;2023-08-12T06:31:01;29.20;99.90
12264;DHT22;6194;49.010;8.414;2023-08-12T06:33:26;29.20;99.90
12264;DHT22;6194;49.010;8.414;2023-08-12T06:35:52;28.80;99.90
12264;DHT22;6194;49.010;8.414;2023-08-12T06:38:18;29.20;99.90
12264;DHT22;6194;49.010;8.414;2023-08-12T06:40:43;29.70;99.90
12264;DHT22;6194;49.010;8.414;2023-08-12T06:43:09;28.90;99.90
12264;DHT22;6194;49.010;8.414;2023-08-12T06:45:35;28.20;99.90
12264;DHT22;6194;49.010;8.414;2023-08-12T06:48:01;27.30;99.90
12264;DHT22;6194;49.010;8.414;2023-08-12T06:50:30;26.90;99.90
12264;DHT22;6194;49.010;8.414;2023-08-12T06:52:57;26.60;99.90
12264;DHT22;6194;49.010;8.414;2023-08-12T06:55:22;26.40;99.90
12264;DHT22;6194;49.010;8.414;2023-08-12T06:57:48;25.90;99.90
12264;DHT22;6194;49.010;8.414;2023-08-12T07:00:14;25.60;99.90
12264;DHT22;6194;49.010;8.414;2023-08-12T07:02:39;25.70;99.90
12264;DHT22;6194;49.010;8.414;2023-08-12T07:05:08;25.80;99.90
12264;DHT22;6194;49.010;8.414;2023-08-12T07:07:33;25.90;99.90
12264;DHT22;6194;49.010;8.414;2023-08-12T07:09:59;26.20;99.90
12264;DHT22;6194;49.010;8.414;2023-08-12T07:12:24;26.60;99.90
12264;DHT22;6194;49.010;8.414;2023-08-12T07:14:50;26.80;99.90
12264;DHT22;6194;49.010;8.414;2023-08-12T07:17:16;27.00;99.90
12264;DHT22;6194;49.010;8.414;2023-08-12T07:19:41;27.10;99.90
12264;DHT22;6194;49.010;8.414;2023-08-12T07:22:07;27.00;99.90
12264;DHT22;6194;49.010;8.414;2023-08-12T07:24:33;26.80;99.90
12264;DHT22;6194;49.010;8.414;2023-08-12T07:26:58;26.80;99.90
12264;DHT22;6194;49.010;8.414;2023-08-12T07:29:24;26.80;99.90
12264;DHT22;6194;49.010;8.414;2023-08-12T07:31:49;27.00;99.90
12264;DHT22;6194;49.010;8.414;2023-08-12T07:34:16;27.00;99.90
12264;DHT22;6194;49.010;8.414;2023-08-12T07:36:42;27.30;99.90
12264;DHT22;6194;49.010;8.414;2023-08-12T07:39:10;27.60;99.90
12264;DHT22;6194;49.010;8.414;2023-08-12T07:41:36;27.60;99.90
12264;DHT22;6194;49.010;8.414;2023-08-12T07:44:01;27.50;99.90
12264;DHT22;6194;49.010;8.414;2023-08-12T07:46:28;27.40;99.90
12264;DHT22;6194;49.010;8.414;2023-08-12T07:48:54;27.50;99.90
12264;DHT22;6194;49.010;8.414;2023-08-12T07:51:19;27.70;99.90
12264;DHT22;6194;49.010;8.414;2023-08-12T07:53:45;28.00;99.90
12264;DHT22;6194;49.010;8.414;2023-08-12T07:56:11;28.40;99.90
12264;DHT22;6194;49.010;8.414;2023-08-12T07:58:36;28.90;99.90
12264;DHT22;6194;49.010;8.414;2023-08-12T08:01:02;29.20;99.90
12264;DHT22;6194;49.010;8.414;2023-08-12T08:03:27;28.90;99.90
12264;DHT22;6194;49.010;8.414;2023-08-12T08:05:54;28.90;99.90
12264;DHT22;6194;49.010;8.414;2023-08-12T08:08:20;28.60;99.90
12264;DHT22;6194;49.010;8.414;2023-08-12T08:10:46;28.80;99.90
12264;DHT22;6194;49.010;8.414;2023-08-12T08:13:11;29.00;99.90
12264;DHT22;6194;49.010;8.414;2023-08-12T08:15:37;28.90;99.90
12264;DHT22;6194;49.010;8.414;2023-08-12T08:18:03;29.10;99.90
12264;DHT22;6194;49.010;8.414;2023-08-12T08:20:30;29.20;99.90
12264;DHT22;6194;49.010;8.414;2023-08-12T08:22:55;29.30;99.90
12264;DHT22;6194;49.010;8.414;2023-08-12T08:25:21;29.50;99.90
12264;DHT22;6194;49.010;8.414;2023-08-12T08:27:47;29.90;99.90
12264;DHT22;6194;49.010;8.414;2023-08-12T08:30:13;30.50;99.90
12264;DHT22;6194;49.010;8.414;2023-08-12T08:32:40;31.00;99.90
12264;DHT22;6194;49.010;8.414;2023-08-12T08:35:06;31.80;99.90
12264;DHT22;6194;49.010;8.414;2023-08-12T08:37:31;32.20;99.90
12264;DHT22;6194;49.010;8.414;2023-08-12T08:39:57;32.20;99.90
12264;DHT22;6194;49.010;8.414;2023-08-12T08:42:24;32.60;99.90
12264;DHT22;6194;49.010;8.414;2023-08-12T08:44:53;32.20;99.90
12264;DHT22;6194;49.010;8.414;2023-08-12T08:47:25;32.20;99.90
12264;DHT22;6194;49.010;8.414;2023-08-12T08:49:50;32.20;99.90
12264;DHT22;6194;49.010;8.414;2023-08-12T08:52:17;32.30;99.90
12264;DHT22;6194;49.010;8.414;2023-08-12T08:54:44;32.30;99.90
12264;DHT22;6194;49.010;8.414;2023-08-12T08:57:10;32.50;99.90
12264;DHT22;6194;49.010;8.414;2023-08-12T08:59:37;32.80;99.90
12264;DHT22;6194;49.010;8.414;2023-08-12T09:02:04;32.40;99.90
12264;DHT22;6194;49.010;8.414;2023-08-12T09:04:31;32.60;99.90
12264;DHT22;6194;49.010;8.414;2023-08-12T09:06:57;32.20;99.90
12264;DHT22;6194;49.010;8.414;2023-08-12T09:09:25;32.00;99.90
12264;DHT22;6194;49.010;8.414;2023-08-12T09:11:52;32.40;99.90
12264;DHT22;6194;49.010;8.414;2023-08-12T09:14:18;32.50;99.90
12264;DHT22;6194;49.010;8.414;2023-08-12T09:16:44;32.60;99.90
12264;DHT22;6194;49.010;8.414;2023-08-12T09:19:10;32.40;99.90
12264;DHT22;6194;49.010;8.414;2023-08-12T09:21:35;32.60;99.90
12264;DHT22;6194;49.010;8.414;2023-08-12T09:24:05;32.60;99.90
12264;DHT22;6194;49.010;8.414;2023-08-12T09:26:30;32.00;99.90
12264;DHT22;6194;49.010;8.414;2023-08-12T09:28:58;31.70;99.90
12264;DHT22;6194;49.010;8.414;2023-08-12T09:31:26;31.60;99.90
12264;DHT22;6194;49.010;8.414;2023-08-12T09:34:14;31.20;99.90
12264;DHT22;6194;49.010;8.414;2023-08-12T09:36:40;31.10;99.90
12264;DHT22;6194;49.010;8.414;2023-08-12T09:39:07;31.00;99.90
12264;DHT22;6194;49.010;8.414;2023-08-12T09:41:37;31.10;99.90
12264;DHT22;6194;49.010;8.414;2023-08-12T09:44:05;31.00;99.90
12264;DHT22;6194;49.010;8.414;2023-08-12T09:46:32;31.10;99.90
12264;DHT22;6194;49.010;8.414;2023-08-12T09:48:58;31.20;99.90
12264;DHT22;6194;49.010;8.414;2023-08-12T09:51:24;31.10;99.90
12264;DHT22;6194;49.010;8.414;2023-08-12T09:53:51;31.30;99.90
12264;DHT22;6194;49.010;8.414;2023-08-12T09:56:18;31.40;99.90
12264;DHT22;6194;49.010;8.414;2023-08-12T09:58:48;31.70;99.90
12264;DHT22;6194;49.010;8.414;2023-08-12T10:01:19;31.70;99.90
12264;DHT22;6194;49.010;8.414;2023-08-12T10:03:49;31.90;99.90
12264;DHT22;6194;49.010;8.414;2023-08-12T10:06:16;31.50;99.90
12264;DHT22;6194;49.010;8.414;2023-08-12T10:08:42;31.80;99.90
12264;DHT22;6194;49.010;8.414;2023-08-12T10:11:09;32.00;99.90
12264;DHT22;6194;49.010;8.414;2023-08-12T10:13:35;32.40;99.90
12264;DHT22;6194;49.010;8.414;2023-08-12T10:16:02;32.20;99.90
12264;DHT22;6194;49.010;8.414;2023-08-12T10:18:28;31.50;99.90
12264;DHT22;6194;49.010;8.414;2023-08-12T10:20:57;30.70;99.90
12264;DHT22;6194;49.010;8.414;2023-08-12T10:23:24;30.30;99.90
12264;DHT22;6194;49.010;8.414;2023-08-12T10:25:53;30.10;99.90
12264;DHT22;6194;49.010;8.414;2023-08-12T10:28:19;30.00;99.90
12264;DHT22;6194;49.010;8.414;2023-08-12T10:30:45;30.20;99.90
12264;DHT22;6194;49.010;8.414;2023-08-12T10:33:11;30.40;99.90
12264;DHT22;6194;49.010;8.414;2023-08-12T10:35:43;30.60;99.90
12264;DHT22;6194;49.010;8.414;2023-08-12T10:38:11;31.00;99.90
12264;DHT22;6194;49.010;8.414;2023-08-12T10:40:37;31.30;99.90
12264;DHT22;6194;49.010;8.414;2023-08-12T10:43:02;31.70;99.90
12264;DHT22;6194;49.010;8.414;2023-08-12T10:45:46;31.60;99.90
12264;DHT22;6194;49.010;8.414;2023-08-12T10:48:21;31.30;99.90
12264;DHT22;6194;49.010;8.414;2023-08-12T10:50:59;30.80;99.90
12264;DHT22;6194;49.010;8.414;2023-08-12T10:53:25;30.40;99.90
12264;DHT22;6194;49.010;8.414;2023-08-12T10:56:00;30.00;99.90
12264;DHT22;6194;49.010;8.414;2023-08-12T10:58:40;29.50;99.90
12264;DHT22;6194;49.010;8.414;2023-08-12T11:01:11;29.00;99.90
12264;DHT22;6194;49.010;8.414;2023-08-12T11:03:38;28.50;99.90
12264;DHT22;6194;49.010;8.414;2023-08-12T11:06:10;27.90;99.90
12264;DHT22;6194;49.010;8.414;2023-08-12T11:08:36;27.20;99.90
12264;DHT22;6194;49.010;8.414;2023-08-12T11:11:02;26.50;99.90
12264;DHT22;6194;49.010;8.414;2023-08-12T11:13:28;25.90;99.90
12264;DHT22;6194;49.010;8.414;2023-08-12T11:16:06;25.60;99.90
12264;DHT22;6194;49.010;8.414;2023-08-12T11:18:35;25.20;99.90
12264;DHT22;6194;49.010;8.414;2023-08-12T11:21:01;24.80;99.90
12264;DHT22;6194;49.010;8.414;2023-08-12T11:23:27;24.20;99.90
12264;DHT22;6194;49.010;8.414;2023-08-12T11:25:53;23.80;99.90
12264;DHT22;6194;49.010;8.414;2023-08-12T11:28:19;23.70;99.90
12264;DHT22;6194;49.010;8.414;2023-08-12T11:30:47;23.90;99.90
12264;DHT22;6194;49.010;8.414;2023-08-12T11:33:16;24.10;99.90
12264;DHT22;6194;49.010;8.414;2023-08-12T11:35:44;24.50;99.90
12264;DHT22;6194;49.010;8.414;2023-08-12T11:38:09;25.40;99.90
12264;DHT22;6194;49.010;8.414;2023-08-12T11:40:35;26.30;99.90
12264;DHT22;6194;49.010;8.414;2023-08-12T11:43:01;26.90;99.90
12264;DHT22;6194;49.010;8.414;2023-08-12T11:45:28;27.60;99.90
12264;DHT22;6194;49.010;8.414;2023-08-12T11:47:54;28.10;99.90
12264;DHT22;6194;49.010;8.414;2023-08-12T11:50:21;28.30;99.90
12264;DHT22;6194;49.010;8.414;2023-08-12T11:52:48;28.60;99.90
12264;DHT22;6194;49.010;8.414;2023-08-12T11:55:14;28.20;99.90
12264;DHT22;6194;49.010;8.414;2023-08-12T11:57:40;27.80;99.90
12264;DHT22;6194;49.010;8.414;2023-08-12T12:00:09;27.80;99.90
12264;DHT22;6194;49.010;8.414;2023-08-12T12:02:50;27.90;99.90
12264;DHT22;6194;49.010;8.414;2023-08-12T12:05:17;28.30;99.90
12264;DHT22;6194;49.010;8.414;2023-08-12T12:07:43;28.10;99.90
12264;DHT22;6194;49.010;8.414;2023-08-12T12:10:29;27.80;99.90
12264;DHT22;6194;49.010;8.414;2023-08-12T12:12:55;27.50;99.90
12264;DHT22;6194;49.010;8.414;2023-08-12T12:15:21;27.50;99.90
12264;DHT22;6194;49.010;8.414;2023-08-12T12:17:50;27.50;99.90
12264;DHT22;6194;49.010;8.414;2023-08-12T12:20:16;27.40;99.90
12264;DHT22;6194;49.010;8.414;2023-08-12T12:22:43;27.50;99.90
12264;DHT22;6194;49.010;8.414;2023-08-12T12:25:14;27.70;99.90
12264;DHT22;6194;49.010;8.414;2023-08-12T12:27:41;27.80;99.90
12264;DHT22;6194;49.010;8.414;2023-08-12T12:30:11;27.90;99.90
12264;DHT22;6194;49.010;8.414;2023-08-12T12:32:37;28.20;99.90
12264;DHT22;6194;49.010;8.414;2023-08-12T12:35:03;28.40;99.90
12264;DHT22;6194;49.010;8.414;2023-08-12T12:37:30;28.90;99.90
12264;DHT22;6194;49.010;8.414;2023-08-12T12:39:56;29.20;99.90
12264;DHT22;6194;49.010;8.414;2023-08-12T12:42:21;29.60;99.90
12264;DHT22;6194;49.010;8.414;2023-08-12T12:44:47;29.80;99.90
12264;DHT22;6194;49.010;8.414;2023-08-12T12:47:12;30.30;99.90
12264;DHT22;6194;49.010;8.414;2023-08-12T12:49:39;30.20;99.90
12264;DHT22;6194;49.010;8.414;2023-08-12T12:52:06;30.30;99.90
12264;DHT22;6194;49.010;8.414;2023-08-12T12:54:32;30.40;99.90
12264;DHT22;6194;49.010;8.414;2023-08-12T12:56:58;30.20;99.90
12264;DHT22;6194;49.010;8.414;2023-08-12T12:59:24;30.10;99.90
12264;DHT22;6194;49.010;8.414;2023-08-12T13:01:49;30.00;99.90
12264;DHT22;6194;49.010;8.414;2023-08-12T13:04:15;29.80;99.90
12264;DHT22;6194;49.010;8.414;2023-08-12T13:06:40;29.80;99.90
12264;DHT22;6194;49.010;8.414;2023-08-12T13:09:06;29.70;99.90
12264;DHT22;6194;49.010;8.414;2023-08-12T13:11:33;29.90;99.90
12264;DHT22;6194;49.010;8.414;2023-08-12T13:14:00;30.30;99.90
12264;DHT22;6194;49.010;8.414;2023-08-12T13:16:31;30.50;99.90
12264;DHT22;6194;49.010;8.414;2023-08-12T13:18:57;30.50;99.90
12264;DHT22;6194;49.010;8.414;2023-08-12T13:21:24;30.60;99.90
12264;DHT22;6194;49.010;8.414;2023-08-12T13:23:50;30.80;99.90
12264;DHT22;6194;49.010;8.414;2023-08-12T13:26:16;30.90;99.90
12264;DHT22;6194;49.010;8.414;2023-08-12T13:28:43;31.30;99.90
12264;DHT22;6194;49.010;8.414;2023-08-12T13:31:09;31.20;99.90
12264;DHT22;6194;49.010;8.414;2023-08-12T13:33:35;31.30;99.90
12264;DHT22;6194;49.010;8.414;2023-08-12T13:36:00;31.20;99.90
12264;DHT22;6194;49.010;8.414;2023-08-12T13:38:26;31.40;99.90
12264;DHT22;6194;49.010;8.414;2023-08-12T13:40:51;31.60;99.90
12264;DHT22;6194;49.010;8.414;2023-08-12T13:43:17;31.60;99.90
12264;DHT22;6194;49.010;8.414;2023-08-12T13:45:42;31.40;99.90
12264;DHT22;6194;49.010;8.414;2023-08-12T13:48:08;31.40;99.90
12264;DHT22;6194;49.010;8.414;2023-08-12T13:50:34;31.40;99.90
12264;DHT22;6194;49.010;8.414;2023-08-12T13:52:59;31.40;99.90
12264;DHT22;6194;49.010;8.414;2023-08-12T13:55:26;31.60;99.90
12264;DHT22;6194;49.010;8.414;2023-08-12T13:57:51;32.00;99.90
12264;DHT22;6194;49.010;8.414;2023-08-12T14:00:18;32.20;99.90
12264;DHT22;6194;49.010;8.414;2023-08-12T14:02:44;32.00;99.90
12264;DHT22;6194;49.010;8.414;2023-08-12T14:05:10;31.60;99.90
12264;DHT22;6194;49.010;8.414;2023-08-12T14:07:36;31.50;99.90
12264;DHT22;6194;49.010;8.414;2023-08-12T14:10:03;31.60;99.90
12264;DHT22;6194;49.010;8.414;2023-08-12T14:12:29;31.70;99.90
12264;DHT22;6194;49.010;8.414;2023-08-12T14:14:54;31.20;99.90
12264;DHT22;6194;49.010;8.414;2023-08-12T14:17:20;30.70;99.90
12264;DHT22;6194;49.010;8.414;2023-08-12T14:19:49;30.10;99.90
12264;DHT22;6194;49.010;8.414;2023-08-12T14:22:15;29.50;99.90
12264;DHT22;6194;49.010;8.414;2023-08-12T14:24:41;29.10;99.90
12264;DHT22;6194;49.010;8.414;2023-08-12T14:27:06;28.90;99.90
12264;DHT22;6194;49.010;8.414;2023-08-12T14:29:32;28.80;99.90
12264;DHT22;6194;49.010;8.414;2023-08-12T14:31:57;28.50;99.90
12264;DHT22;6194;49.010;8.414;2023-08-12T14:34:23;28.20;99.90
12264;DHT22;6194;49.010;8.414;2023-08-12T14:36:49;27.70;99.90
12264;DHT22;6194;49.010;8.414;2023-08-12T14:39:15;27.30;99.90
12264;DHT22;6194;49.010;8.414;2023-08-12T14:41:41;27.00;99.90
12264;DHT22;6194;49.010;8.414;2023-08-12T14:44:06;26.90;99.90
12264;DHT22;6194;49.010;8.414;2023-08-12T14:46:32;26.00;99.90
12264;DHT22;6194;49.010;8.414;2023-08-12T14:48:57;24.70;99.90
12264;DHT22;6194;49.010;8.414;2023-08-12T14:51:23;24.00;99.90
12264;DHT22;6194;49.010;8.414;2023-08-12T14:53:49;23.50;99.90
12264;DHT22;6194;49.010;8.414;2023-08-12T14:56:15;23.20;99.90
12264;DHT22;6194;49.010;8.414;2023-08-12T14:58:42;22.70;99.90
12264;DHT22;6194;49.010;8.414;2023-08-12T15:01:07;22.50;99.90
12264;DHT22;6194;49.010;8.414;2023-08-12T15:03:33;22.40;99.90
12264;DHT22;6194;49.010;8.414;2023-08-12T15:05:59;22.40;99.90
12264;DHT22;6194;49.010;8.414;2023-08-12T15:08:26;22.40;99.90
12264;DHT22;6194;49.010;8.414;2023-08-12T15:10:52;22.50;99.90
12264;DHT22;6194;49.010;8.414;2023-08-12T15:13:18;22.60;99.90
12264;DHT22;6194;49.010;8.414;2023-08-12T15:15:48;22.90;99.90
12264;DHT22;6194;49.010;8.414;2023-08-12T15:18:14;22.90;99.90
12264;DHT22;6194;49.010;8.414;2023-08-12T15:20:39;22.90;99.90
12264;DHT22;6194;49.010;8.414;2023-08-12T15:23:05;22.80;99.90
12264;DHT22;6194;49.010;8.414;2023-08-12T15:25:31;22.60;99.90
12264;DHT22;6194;49.010;8.414;2023-08-12T15:27:57;22.50;99.90
12264;DHT22;6194;49.010;8.414;2023-08-12T15:30:22;22.40;99.90
12264;DHT22;6194;49.010;8.414;2023-08-12T15:32:48;22.30;99.90
12264;DHT22;6194;49.010;8.414;2023-08-12T15:35:13;22.30;99.90
12264;DHT22;6194;49.010;8.414;2023-08-12T15:37:39;22.30;99.90
12264;DHT22;6194;49.010;8.414;2023-08-12T15:40:05;22.40;99.90
12264;DHT22;6194;49.010;8.414;2023-08-12T15:42:31;22.40;99.90